Time;durP1;ratioP1;P1;durP2;ratioP2;P2;SDS_P1;SDS_P2;PMS_P1;PMS_P2;Temp;Humidity;BMP_temperature;BMP_pressure;BME280_temperature;BME280_humidity;BME280_pressure;Samples;Min_cycle;Max_cycle;Signal;HPM_P1;HPM_P2
2023/01/10 00:02:03;;;;;;;1.48;1.10;;;19.50;60.50;;;;;;4978377;28;20219;-67
2023/01/10 00:04:29;;;;;;;0.70;0.70;;;19.50;60.50;;;;;;4991412;28;20194;-67
2023/01/10 00:06:55;;;;;;;1.52;1.00;;;19.50;60.50;;;;;;4978048;28;20189;-67
2023/01/10 00:09:21;;;;;;;0.88;0.88;;;19.50;60.50;;;;;;4977894;28;20181;-67
2023/01/10 00:14:35;;;;;;;1.10;1.00;;;19.60;60.60;;;;;;4989801;28;20192;-67
2023/01/10 00:17:03;;;;;;;1.33;0.90;;;19.50;60.40;;;;;;4993992;28;20193;-67
2023/01/10 00:19:30;;;;;;;0.70;0.70;;;19.60;60.60;;;;;;4994040;28;20658;-67
2023/01/10 00:21:57;;;;;;;1.15;0.82;;;19.60;61.20;;;;;;4985935;28;20210;-67
2023/01/10 00:24:23;;;;;;;1.10;1.00;;;19.50;60.50;;;;;;4995088;28;20184;-67
2023/01/10 00:26:50;;;;;;;1.85;0.95;;;19.60;60.50;;;;;;4995513;28;20193;-68
2023/01/10 00:29:23;;;;;;;1.08;1.00;;;19.60;60.50;;;;;;4994964;28;20184;-67
2023/01/10 00:31:49;;;;;;;1.25;0.90;;;19.50;60.30;;;;;;5000170;28;20250;-67
2023/01/10 00:34:15;;;;;;;1.52;0.90;;;19.50;60.50;;;;;;4986427;28;20185;-67
2023/01/10 00:36:41;;;;;;;1.23;0.90;;;19.50;60.50;;;;;;4977685;28;20208;-67
2023/01/10 00:39:09;;;;;;;1.27;0.77;;;19.50;60.50;;;;;;4993486;28;20193;-67
2023/01/10 00:44:20;;;;;;;0.93;0.80;;;19.50;60.50;;;;;;4983216;28;20190;-66
2023/01/10 00:46:45;;;;;;;1.10;1.00;;;19.60;60.60;;;;;;4989810;28;20288;-66
2023/01/10 00:49:14;;;;;;;0.80;0.80;;;19.50;60.60;;;;;;4990343;28;20186;-67
2023/01/10 00:51:39;;;;;;;1.00;0.77;;;19.60;60.60;;;;;;4989346;28;20193;-66
2023/01/10 00:54:05;;;;;;;0.75;0.75;;;19.60;60.60;;;;;;4977647;28;20243;-67
2023/01/10 00:56:31;;;;;;;0.60;0.60;;;19.60;60.60;;;;;;4993769;28;20346;-66
2023/01/10 00:58:56;;;;;;;0.70;0.70;;;19.50;60.60;;;;;;4977025;28;20197;-67
2023/01/10 01:01:22;;;;;;;0.60;0.60;;;19.60;60.70;;;;;;4993376;28;20285;-67
2023/01/10 01:03:48;;;;;;;1.15;0.70;;;19.60;60.60;;;;;;4993265;28;20197;-67
2023/01/10 01:06:14;;;;;;;1.00;0.73;;;19.60;60.60;;;;;;4994391;28;20200;-67
2023/01/10 01:08:39;;;;;;;0.82;0.70;;;19.60;60.60;;;;;;4993087;28;20204;-67
2023/01/10 01:11:05;;;;;;;1.92;1.00;;;19.60;60.60;;;;;;4993101;28;20188;-67
2023/01/10 01:13:31;;;;;;;1.52;0.90;;;19.60;60.60;;;;;;4993226;28;20188;-67
2023/01/10 01:15:59;;;;;;;1.50;1.10;;;19.60;60.60;;;;;;4976644;28;20244;-67
2023/01/10 01:18:26;;;;;;;0.90;0.90;;;19.60;60.60;;;;;;4992956;28;20203;-66
2023/01/10 01:20:59;;;;;;;1.38;0.70;;;19.60;60.60;;;;;;4984754;28;20197;-67
2023/01/10 01:23:24;;;;;;;0.70;0.70;;;19.60;60.70;;;;;;4992893;28;20188;-67
2023/01/10 01:25:53;;;;;;;0.65;0.65;;;19.60;60.60;;;;;;4968801;28;20601;-67
2023/01/10 01:28:20;;;;;;;0.60;0.60;;;19.50;60.60;;;;;;4994763;28;20189;-67
2023/01/10 01:30:46;;;;;;;1.20;0.90;;;19.50;60.50;;;;;;4988551;28;20192;-67
2023/01/10 01:33:12;;;;;;;0.65;0.63;;;19.50;60.50;;;;;;4976401;28;20193;-67
2023/01/10 01:35:42;;;;;;;1.85;0.80;;;19.60;60.60;;;;;;4992651;28;20358;-68
2023/01/10 01:38:07;;;;;;;0.90;0.85;;;19.50;60.50;;;;;;4984279;28;20197;-67
2023/01/10 01:40:33;;;;;;;1.83;0.70;;;19.60;60.60;;;;;;4976301;28;20200;-67
2023/01/10 01:42:59;;;;;;;0.90;0.63;;;19.50;60.50;;;;;;4984325;28;20308;-67
2023/01/10 01:45:28;;;;;;;0.90;0.60;;;19.50;60.50;;;;;;4976245;28;20193;-67
2023/01/10 01:48:07;;;;;;;0.60;0.60;;;19.60;60.60;;;;;;4976034;28;20271;-67
2023/01/10 01:50:52;;;;;;;0.85;0.63;;;19.50;60.50;;;;;;4972831;28;20185;-67
2023/01/10 01:53:38;;;;;;;0.45;0.43;;;19.60;60.60;;;;;;4992225;28;20239;-67
2023/01/10 01:56:15;;;;;;;0.68;0.60;;;19.50;60.40;;;;;;4962375;28;20228;-67
2023/01/10 01:59:16;;;;;;;0.82;0.70;;;19.50;60.40;;;;;;4992050;28;20207;-67
2023/01/10 02:01:46;;;;;;;1.10;0.80;;;19.60;60.40;;;;;;4972687;28;20307;-67
2023/01/10 02:04:30;;;;;;;0.50;0.50;;;19.50;60.50;;;;;;4992202;28;20185;-67
2023/01/10 02:06:58;;;;;;;0.80;0.68;;;19.60;60.50;;;;;;4992129;28;20193;-65
2023/01/10 02:09:42;;;;;;;0.57;0.50;;;19.60;60.40;;;;;;4992151;28;20191;-67
2023/01/10 02:12:09;;;;;;;0.88;0.50;;;19.50;60.30;;;;;;4991931;28;20185;-67
2023/01/10 02:14:37;;;;;;;0.73;0.60;;;19.50;60.30;;;;;;4991999;28;20343;-67
2023/01/10 02:17:02;;;;;;;0.55;0.50;;;19.50;60.30;;;;;;4992027;28;20200;-67
2023/01/10 02:19:49;;;;;;;0.70;0.60;;;19.50;60.30;;;;;;4987370;28;20198;-67
2023/01/10 02:22:34;;;;;;;0.85;0.60;;;19.60;60.40;;;;;;4978603;28;20212;-67
2023/01/10 02:25:44;;;;;;;0.95;0.60;;;19.60;60.40;;;;;;4975368;28;20216;-66
2023/01/10 02:28:59;;;;;;;0.77;0.55;;;19.60;60.40;;;;;;4991506;28;20247;-67
2023/01/10 02:32:09;;;;;;;0.52;0.52;;;19.50;60.30;;;;;;4975657;28;20192;-67
2023/01/10 02:35:01;;;;;;;0.63;0.50;;;19.60;60.40;;;;;;4991979;28;20243;-68
2023/01/10 02:37:55;;;;;;;0.55;0.55;;;19.50;60.30;;;;;;4985852;28;20204;-67
2023/01/10 02:40:38;;;;;;;0.60;0.60;;;19.50;60.60;;;;;;4983563;28;20670;-67
2023/01/10 02:43:18;;;;;;;0.50;0.50;;;19.50;60.30;;;;;;4984709;28;20212;-67
2023/01/10 02:46:01;;;;;;;0.50;0.40;;;19.50;60.30;;;;;;4991673;28;20363;-67
2023/01/10 02:48:26;;;;;;;1.27;0.55;;;19.60;60.40;;;;;;4991570;28;20192;-67
2023/01/10 02:51:02;;;;;;;0.55;0.50;;;19.50;60.30;;;;;;4983392;28;20192;-67
2023/01/10 02:53:43;;;;;;;0.80;0.73;;;19.50;60.30;;;;;;4975762;28;20572;-67
2023/01/10 02:56:32;;;;;;;0.50;0.50;;;19.50;60.30;;;;;;4966625;28;20300;-67
2023/01/10 02:59:52;;;;;;;0.50;0.50;;;19.60;60.40;;;;;;4990980;28;20205;-66
2023/01/10 03:02:51;;;;;;;0.40;0.40;;;19.60;60.40;;;;;;4988480;28;20229;-67
2023/01/10 03:05:26;;;;;;;0.55;0.50;;;19.60;60.40;;;;;;4978191;28;20577;-67
2023/01/10 03:08:08;;;;;;;0.43;0.43;;;19.60;60.40;;;;;;4995271;28;20188;-67
2023/01/10 03:10:58;;;;;;;0.50;0.50;;;19.60;60.50;;;;;;4989113;28;20283;-67
2023/01/10 03:13:51;;;;;;;0.50;0.50;;;19.60;60.40;;;;;;4967695;28;20193;-67
2023/01/10 03:16:25;;;;;;;0.50;0.45;;;19.60;60.40;;;;;;4974282;28;20296;-67
2023/01/10 03:19:14;;;;;;;0.65;0.52;;;19.60;60.40;;;;;;4995276;28;20715;-67
2023/01/10 03:21:43;;;;;;;0.60;0.45;;;19.60;60.40;;;;;;4979157;28;20213;-67
2023/01/10 03:24:17;;;;;;;0.50;0.50;;;19.60;60.40;;;;;;4996179;28;20208;-67
2023/01/10 03:27:00;;;;;;;1.33;0.60;;;19.60;60.40;;;;;;4994950;28;20255;-67
2023/01/10 03:29:49;;;;;;;0.32;0.32;;;19.60;60.50;;;;;;4987312;28;20185;-67
2023/01/10 03:32:21;;;;;;;0.60;0.60;;;19.60;60.40;;;;;;4996175;28;20207;-67
2023/01/10 03:34:47;;;;;;;0.77;0.60;;;19.60;60.60;;;;;;4994939;28;20216;-67
2023/01/10 03:37:53;;;;;;;0.82;0.68;;;19.60;60.60;;;;;;4978614;28;20259;-67
2023/01/10 03:40:42;;;;;;;0.40;0.40;;;19.60;60.60;;;;;;4975780;28;20211;-67
2023/01/10 03:46:40;;;;;;;0.40;0.40;;;19.60;60.70;;;;;;4995988;28;20255;-67
2023/01/10 03:49:09;;;;;;;0.40;0.40;;;19.60;60.70;;;;;;4978584;28;20189;-67
2023/01/10 03:51:38;;;;;;;0.57;0.55;;;19.60;60.60;;;;;;4994819;28;20200;-67
2023/01/10 03:54:04;;;;;;;0.40;0.40;;;19.60;60.70;;;;;;4994556;28;20193;-67
2023/01/10 03:56:30;;;;;;;0.40;0.40;;;19.60;60.70;;;;;;4978293;28;20303;-67
2023/01/10 03:58:57;;;;;;;0.45;0.45;;;19.60;60.70;;;;;;4994601;28;20196;-67
2023/01/10 04:01:22;;;;;;;0.43;0.43;;;19.60;60.70;;;;;;4978531;28;20255;-67
2023/01/10 04:03:48;;;;;;;0.68;0.50;;;19.60;60.70;;;;;;4978627;28;20188;-67
2023/01/10 04:06:16;;;;;;;0.50;0.45;;;19.60;60.80;;;;;;4994540;28;20267;-67
2023/01/10 04:08:42;;;;;;;0.75;0.50;;;19.60;60.80;;;;;;4977968;28;20189;-67
2023/01/10 04:11:07;;;;;;;0.60;0.40;;;19.60;60.80;;;;;;4962084;28;20589;-66
2023/01/10 04:13:33;;;;;;;0.45;0.40;;;19.60;61.00;;;;;;4995172;28;20271;-67
2023/01/10 04:15:59;;;;;;;0.50;0.50;;;19.60;61.00;;;;;;4994450;28;20209;-67
2023/01/10 04:18:25;;;;;;;0.40;0.40;;;19.60;61.00;;;;;;4995271;28;20189;-67
2023/01/10 04:20:51;;;;;;;0.82;0.50;;;19.60;60.90;;;;;;4995708;28;20208;-67
2023/01/10 04:23:17;;;;;;;1.77;0.47;;;19.60;60.90;;;;;;4994321;28;20307;-67
2023/01/10 04:25:46;;;;;;;0.40;0.40;;;19.60;61.00;;;;;;5022272;22;20247;-70
2023/01/10 04:28:12;;;;;;;0.73;0.50;;;19.60;61.00;;;;;;4976012;28;20193;-71
2023/01/10 04:30:38;;;;;;;0.40;0.40;;;19.60;61.00;;;;;;4978160;28;20219;-71
2023/01/10 04:33:03;;;;;;;0.45;0.45;;;19.60;61.00;;;;;;4961558;28;20224;-71
2023/01/10 04:35:29;;;;;;;0.50;0.50;;;19.60;61.00;;;;;;4984306;28;20589;-71
2023/01/10 04:37:55;;;;;;;0.52;0.32;;;19.60;61.10;;;;;;4996816;28;20198;-70
2023/01/10 04:40:22;;;;;;;1.15;0.70;;;19.60;61.00;;;;;;4997237;28;20192;-71
2023/01/10 04:42:48;;;;;;;0.47;0.47;;;19.60;61.00;;;;;;4980698;28;20647;-71
2023/01/10 04:45:16;;;;;;;0.50;0.50;;;19.60;61.00;;;;;;5014342;28;20211;-71
2023/01/10 04:47:42;;;;;;;0.50;0.50;;;19.60;60.90;;;;;;4980982;28;20196;-71
2023/01/10 04:50:09;;;;;;;0.38;0.38;;;19.60;60.90;;;;;;4996766;28;20195;-71
2023/01/10 04:52:34;;;;;;;0.45;0.40;;;19.60;60.90;;;;;;5013187;28;20192;-71
2023/01/10 04:55:00;;;;;;;0.40;0.40;;;19.60;60.90;;;;;;4993539;28;20569;-71
2023/01/10 04:57:26;;;;;;;0.45;0.45;;;19.60;61.00;;;;;;5013623;28;20196;-71
2023/01/10 04:59:51;;;;;;;0.40;0.40;;;19.70;61.10;;;;;;4977097;28;20243;-70
2023/01/10 05:02:17;;;;;;;0.50;0.47;;;19.60;61.00;;;;;;4994773;28;20587;-70
2023/01/10 05:04:43;;;;;;;0.60;0.60;;;19.60;60.90;;;;;;4996570;28;20192;-71
2023/01/10 05:07:08;;;;;;;0.60;0.60;;;19.60;61.00;;;;;;5014207;28;20198;-71
2023/01/10 05:09:34;;;;;;;0.50;0.50;;;19.60;61.00;;;;;;4993177;28;20243;-70
2023/01/10 05:12:00;;;;;;;0.50;0.50;;;19.60;61.00;;;;;;4992690;28;20207;-70
2023/01/10 05:14:26;;;;;;;0.40;0.40;;;19.60;61.00;;;;;;4983583;28;20200;-70
2023/01/10 05:16:51;;;;;;;0.40;0.40;;;19.70;61.10;;;;;;4996629;28;20211;-70
2023/01/10 05:19:17;;;;;;;0.43;0.43;;;19.60;61.00;;;;;;4994186;28;20210;-70
2023/01/10 05:21:43;;;;;;;0.50;0.50;;;19.70;61.20;;;;;;5013916;28;20249;-71
2023/01/10 05:24:08;;;;;;;0.40;0.40;;;19.60;61.00;;;;;;4996050;28;20265;-71
2023/01/10 05:26:34;;;;;;;0.60;0.60;;;19.60;61.10;;;;;;4978952;28;20216;-71
2023/01/10 05:29:00;;;;;;;0.40;0.40;;;19.60;61.10;;;;;;4995653;28;20184;-70
2023/01/10 05:31:26;;;;;;;0.55;0.43;;;19.60;61.00;;;;;;5013439;28;20199;-71
2023/01/10 05:33:51;;;;;;;0.52;0.50;;;19.60;61.00;;;;;;4979456;28;20196;-70
2023/01/10 05:36:18;;;;;;;0.30;0.30;;;19.60;61.00;;;;;;4979485;28;20211;-70
2023/01/10 05:38:44;;;;;;;0.75;0.40;;;19.60;61.00;;;;;;4979471;28;20202;-74
2023/01/10 05:41:10;;;;;;;1.75;0.40;;;19.60;61.00;;;;;;4995671;28;20199;-71
2023/01/10 05:43:36;;;;;;;0.55;0.40;;;19.70;61.10;;;;;;4992545;28;20188;-71
2023/01/10 05:46:02;;;;;;;0.40;0.35;;;19.60;61.00;;;;;;4975506;28;20294;-71
2023/01/10 05:48:28;;;;;;;0.43;0.43;;;19.70;61.20;;;;;;4995291;28;20379;-71
2023/01/10 05:50:54;;;;;;;1.10;0.50;;;19.60;61.00;;;;;;4995765;28;20192;-71
2023/01/10 05:53:20;;;;;;;0.70;0.50;;;19.70;61.10;;;;;;5010077;28;20572;-71
2023/01/10 05:56:00;;;;;;;0.70;0.70;;;19.70;61.20;;;;;;4977741;28;20266;-71
2023/01/10 05:58:28;;;;;;;0.65;0.50;;;19.60;61.00;;;;;;4994121;28;20196;-70
2023/01/10 06:00:55;;;;;;;1.10;0.68;;;19.60;61.00;;;;;;4979087;28;20274;-71
2023/01/10 06:03:22;;;;;;;0.65;0.40;;;19.60;61.00;;;;;;4995326;28;20212;-70
2023/01/10 06:05:48;;;;;;;1.40;0.60;;;19.70;61.00;;;;;;4978172;28;20236;-71
2023/01/10 06:08:13;;;;;;;0.82;0.50;;;19.60;60.90;;;;;;4981533;28;20211;-71
2023/01/10 06:10:39;;;;;;;0.70;0.60;;;19.70;61.00;;;;;;4979987;28;20188;-71
2023/01/10 06:13:05;;;;;;;0.57;0.50;;;19.70;61.10;;;;;;4979442;28;20192;-71
2023/01/10 06:15:32;;;;;;;1.08;0.63;;;19.60;60.90;;;;;;4994821;28;20204;-71
2023/01/10 06:17:58;;;;;;;1.85;0.98;;;19.60;60.90;;;;;;4993356;28;20192;-71
2023/01/10 06:20:23;;;;;;;0.80;0.57;;;19.70;61.10;;;;;;4977308;28;20203;-71
2023/01/10 06:22:49;;;;;;;0.75;0.60;;;19.60;61.00;;;;;;4981862;28;20211;-72
2023/01/10 06:25:15;;;;;;;0.95;0.50;;;19.70;61.10;;;;;;5011662;28;20696;-71
2023/01/10 06:27:43;;;;;;;0.60;0.60;;;19.60;60.90;;;;;;4978527;28;20279;-71
2023/01/10 06:30:12;;;;;;;1.20;0.57;;;19.70;61.00;;;;;;4994365;28;20188;-72
2023/01/10 06:32:39;;;;;;;0.93;0.70;;;19.70;61.00;;;;;;4979288;28;20181;-72
2023/01/10 06:35:06;;;;;;;2.30;0.63;;;19.70;61.00;;;;;;4995319;28;20219;-71
2023/01/10 06:37:32;;;;;;;2.13;1.17;;;19.70;61.10;;;;;;4993903;28;20192;-71
2023/01/10 06:39:58;;;;;;;1.20;0.50;;;19.70;61.00;;;;;;4991040;28;20192;-71
2023/01/10 06:42:23;;;;;;;0.90;0.75;;;19.70;61.00;;;;;;4992678;28;20239;-72
2023/01/10 06:44:49;;;;;;;0.88;0.77;;;19.60;60.90;;;;;;4994139;28;20211;-71
2023/01/10 06:47:15;;;;;;;1.27;0.88;;;19.70;61.00;;;;;;4977886;28;20180;-71
2023/01/10 06:49:40;;;;;;;3.85;0.90;;;19.70;61.10;;;;;;4994084;28;20188;-71
2023/01/10 06:52:06;;;;;;;0.93;0.60;;;19.60;60.90;;;;;;4994429;28;20198;-71
2023/01/10 06:54:32;;;;;;;2.22;0.80;;;19.60;60.90;;;;;;5009825;28;20184;-71
2023/01/10 06:56:58;;;;;;;1.63;0.75;;;19.60;60.90;;;;;;5010697;28;20207;-71
2023/01/10 06:59:23;;;;;;;1.50;0.90;;;19.60;60.90;;;;;;4977593;28;20688;-71
2023/01/10 07:01:49;;;;;;;1.60;0.70;;;19.60;60.90;;;;;;4974643;28;20714;-71
2023/01/10 07:04:15;;;;;;;0.70;0.60;;;19.60;60.90;;;;;;5009364;28;20195;-71
2023/01/10 07:06:41;;;;;;;1.38;0.73;;;19.60;60.90;;;;;;4977881;28;20227;-71
2023/01/10 07:09:07;;;;;;;1.00;0.90;;;19.60;61.50;;;;;;4997818;28;20689;-71
2023/01/10 07:11:34;;;;;;;1.45;0.70;;;19.60;60.90;;;;;;5010243;28;20233;-71
2023/01/10 07:14:01;;;;;;;0.98;0.57;;;19.60;60.90;;;;;;4974827;28;20267;-71
2023/01/10 07:16:27;;;;;;;1.17;0.88;;;19.60;60.90;;;;;;4992798;28;20265;-71
2023/01/10 07:18:53;;;;;;;1.88;0.80;;;19.60;60.90;;;;;;4977590;28;20230;-71
2023/01/10 07:21:19;;;;;;;3.53;1.13;;;19.60;60.90;;;;;;5011428;28;20272;-71
2023/01/10 07:23:49;;;;;;;1.08;0.73;;;19.60;60.80;;;;;;5011486;28;20195;-71
2023/01/10 07:26:19;;;;;;;3.00;1.00;;;19.60;60.80;;;;;;4993800;28;20215;-71
2023/01/10 07:28:51;;;;;;;1.48;0.80;;;19.60;60.70;;;;;;4977521;28;20203;-71
2023/01/10 07:31:19;;;;;;;1.23;0.80;;;19.60;60.60;;;;;;4985691;28;20180;-71
2023/01/10 07:33:45;;;;;;;1.75;0.88;;;19.60;60.70;;;;;;4993636;28;20192;-71
2023/01/10 07:36:11;;;;;;;0.70;0.60;;;19.60;60.70;;;;;;4993778;28;20703;-71
2023/01/10 07:38:37;;;;;;;2.38;0.90;;;19.60;60.80;;;;;;4993438;28;20184;-71
2023/01/10 07:41:04;;;;;;;0.95;0.73;;;19.60;60.60;;;;;;5009984;28;20296;-71
2023/01/10 07:43:30;;;;;;;2.08;0.93;;;19.60;60.60;;;;;;5011188;28;20192;-71
2023/01/10 07:46:02;;;;;;;1.58;0.88;;;19.60;60.60;;;;;;4977900;28;20208;-71
2023/01/10 07:48:29;;;;;;;1.83;1.10;;;19.60;60.60;;;;;;5003218;28;20215;-71
2023/01/10 07:50:56;;;;;;;1.27;1.00;;;19.60;60.60;;;;;;4997492;28;20187;-71
2023/01/10 07:53:23;;;;;;;2.17;0.90;;;19.60;60.50;;;;;;4997303;28;20192;-71
2023/01/10 07:55:49;;;;;;;1.42;0.70;;;19.60;60.60;;;;;;4997006;28;20208;-73
2023/01/10 07:58:15;;;;;;;2.33;1.20;;;19.60;60.40;;;;;;4980771;28;20573;-73
2023/01/10 08:00:41;;;;;;;1.27;1.00;;;19.60;60.50;;;;;;4994148;28;20239;-73
2023/01/10 08:03:09;;;;;;;2.63;1.13;;;19.60;60.50;;;;;;4976668;28;20216;-73
2023/01/10 08:05:35;;;;;;;1.35;0.80;;;19.60;60.40;;;;;;4996525;28;20236;-73
2023/01/10 08:08:10;;;;;;;1.58;1.00;;;19.60;60.50;;;;;;4977387;28;20176;-71
2023/01/10 08:10:38;;;;;;;1.15;0.77;;;19.60;60.40;;;;;;5013952;28;20291;-71
2023/01/10 08:13:05;;;;;;;0.95;0.75;;;19.60;60.40;;;;;;4984192;28;20270;-71
2023/01/10 08:15:31;;;;;;;1.83;1.00;;;19.60;60.40;;;;;;5014444;28;20208;-71
2023/01/10 08:18:01;;;;;;;1.45;0.75;;;19.60;60.40;;;;;;5012824;28;20239;-71
2023/01/10 08:20:28;;;;;;;1.75;1.10;;;19.60;60.40;;;;;;4996782;28;20192;-71
2023/01/10 08:22:58;;;;;;;1.60;0.70;;;19.60;60.40;;;;;;5012962;28;20212;-71
2023/01/10 08:25:25;;;;;;;1.45;0.90;;;19.60;60.40;;;;;;4994312;28;20221;-71
2023/01/10 08:27:51;;;;;;;2.58;1.10;;;19.60;60.50;;;;;;4980542;28;20188;-71
2023/01/10 08:30:17;;;;;;;1.90;1.10;;;19.60;60.40;;;;;;4996702;28;20263;-71
2023/01/10 08:32:43;;;;;;;1.67;1.17;;;19.60;60.40;;;;;;4996209;28;20181;-71
2023/01/10 08:35:10;;;;;;;1.55;1.00;;;19.60;60.40;;;;;;4996587;28;20200;-71
2023/01/10 08:37:36;;;;;;;1.88;0.80;;;19.60;60.40;;;;;;4995891;28;20181;-71
2023/01/10 08:40:02;;;;;;;2.78;1.20;;;19.60;60.40;;;;;;4980118;28;20184;-71
2023/01/10 08:42:28;;;;;;;1.98;0.93;;;19.60;60.40;;;;;;4996547;28;20227;-71
2023/01/10 08:44:54;;;;;;;1.95;1.08;;;19.60;60.40;;;;;;4996825;28;20246;-71
2023/01/10 08:47:20;;;;;;;1.67;0.70;;;19.60;60.40;;;;;;4980147;28;20200;-71
2023/01/10 08:49:48;;;;;;;1.58;0.80;;;19.60;60.40;;;;;;4996128;28;20271;-71
2023/01/10 08:52:15;;;;;;;2.70;1.05;;;19.60;60.40;;;;;;5013910;28;20196;-71
2023/01/10 08:54:40;;;;;;;1.73;1.05;;;19.60;60.40;;;;;;4996234;28;20279;-71
2023/01/10 08:57:06;;;;;;;1.58;0.93;;;19.60;60.40;;;;;;4996113;28;20196;-71
2023/01/10 08:59:32;;;;;;;2.05;0.98;;;19.60;60.40;;;;;;5011768;28;20184;-71
2023/01/10 09:01:58;;;;;;;1.92;1.17;;;19.60;60.40;;;;;;4995345;28;20569;-71
2023/01/10 09:04:27;;;;;;;1.30;0.88;;;19.60;60.40;;;;;;4995818;28;20180;-71
2023/01/10 09:06:54;;;;;;;3.85;1.05;;;19.60;60.40;;;;;;4996107;28;20279;-71
2023/01/10 09:09:20;;;;;;;1.38;0.95;;;19.60;60.40;;;;;;4979420;28;20267;-71
2023/01/10 09:11:46;;;;;;;1.88;1.08;;;19.60;60.40;;;;;;4996083;28;20739;-71
2023/01/10 09:14:11;;;;;;;1.95;1.10;;;19.60;60.40;;;;;;4995836;28;20274;-71
2023/01/10 09:16:38;;;;;;;2.15;1.15;;;19.60;60.40;;;;;;4995442;28;20235;-71
2023/01/10 09:19:04;;;;;;;1.55;0.88;;;19.60;60.40;;;;;;5013059;28;20212;-71
2023/01/10 09:21:30;;;;;;;1.25;0.90;;;19.60;60.40;;;;;;4993967;28;20255;-71
2023/01/10 09:23:55;;;;;;;1.50;0.90;;;19.70;60.50;;;;;;4995852;28;20225;-71
2023/01/10 09:26:21;;;;;;;1.75;1.10;;;19.60;60.40;;;;;;4995543;28;20215;-71
2023/01/10 09:28:48;;;;;;;1.55;1.02;;;19.70;60.50;;;;;;4975877;28;20189;-71
2023/01/10 09:31:14;;;;;;;2.38;0.95;;;19.60;60.40;;;;;;4991498;28;20188;-71
2023/01/10 09:33:41;;;;;;;2.38;1.10;;;19.60;60.40;;;;;;4995477;28;20207;-71
2023/01/10 09:36:08;;;;;;;1.75;1.02;;;19.60;60.40;;;;;;4995502;28;20208;-71
2023/01/10 09:38:34;;;;;;;2.63;1.00;;;19.60;60.40;;;;;;5009959;28;20299;-71
2023/01/10 09:41:38;;;;;;;1.35;0.90;;;19.60;60.40;;;;;;4992183;28;20196;-71
2023/01/10 09:44:27;;;;;;;2.28;1.23;;;19.60;60.40;;;;;;5007151;28;20192;-71
2023/01/10 09:47:23;;;;;;;1.33;0.90;;;19.70;60.50;;;;;;4992124;28;20266;-71
2023/01/10 09:49:57;;;;;;;1.65;1.20;;;19.60;60.40;;;;;;5010006;28;20191;-71
2023/01/10 09:52:32;;;;;;;2.10;1.17;;;19.60;60.40;;;;;;4978854;28;20230;-71
2023/01/10 09:55:15;;;;;;;1.92;1.00;;;19.60;60.40;;;;;;4978906;28;20242;-71
2023/01/10 09:57:41;;;;;;;1.40;1.05;;;19.60;60.40;;;;;;4978783;28;20215;-71
2023/01/10 10:00:13;;;;;;;1.33;0.90;;;19.60;60.40;;;;;;4991659;28;20216;-71
2023/01/10 10:02:46;;;;;;;1.42;0.90;;;19.60;60.40;;;;;;4993895;28;20248;-71
2023/01/10 10:05:23;;;;;;;1.08;0.98;;;19.60;60.40;;;;;;5012672;28;20215;-71
2023/01/10 10:08:01;;;;;;;1.20;1.00;;;19.60;60.30;;;;;;4978762;28;20188;-71
2023/01/10 10:10:39;;;;;;;2.47;1.00;;;19.70;60.40;;;;;;4978567;28;20192;-71
2023/01/10 10:13:18;;;;;;;1.63;0.90;;;19.70;60.30;;;;;;4994351;28;20250;-71
2023/01/10 10:16:11;;;;;;;2.15;0.90;;;19.70;60.30;;;;;;4978468;28;20208;-71
2023/01/10 10:19:22;;;;;;;1.48;1.05;;;19.70;60.30;;;;;;4994375;28;20199;-71
2023/01/10 10:22:06;;;;;;;1.92;1.20;;;19.70;60.20;;;;;;4994486;28;20215;-71
2023/01/10 10:24:53;;;;;;;1.00;0.90;;;19.70;60.20;;;;;;4994576;28;20188;-71
2023/01/10 10:27:35;;;;;;;1.73;0.90;;;19.70;60.40;;;;;;5021059;23;20232;-69
2023/01/10 10:30:42;;;;;;;1.30;0.90;;;19.70;60.30;;;;;;5011514;28;20260;-67
2023/01/10 10:33:55;;;;;;;2.28;1.10;;;19.70;60.40;;;;;;5008241;28;20192;-67
2023/01/10 10:36:43;;;;;;;1.70;1.13;;;19.70;60.50;;;;;;5007869;28;20708;-67
2023/01/10 10:39:18;;;;;;;1.73;1.00;;;19.70;60.50;;;;;;5011005;28;20192;-67
2023/01/10 10:41:49;;;;;;;1.80;1.20;;;19.70;60.40;;;;;;5011148;28;20222;-67
2023/01/10 10:44:36;;;;;;;1.98;1.20;;;19.70;60.30;;;;;;4996497;28;20197;-67
2023/01/10 10:47:02;;;;;;;1.75;1.20;;;19.70;60.30;;;;;;5005849;28;20257;-67
2023/01/10 10:49:49;;;;;;;2.22;1.45;;;19.70;60.20;;;;;;5011199;28;20184;-67
2023/01/10 10:52:34;;;;;;;2.80;1.38;;;19.70;60.20;;;;;;4980360;28;20180;-67
2023/01/10 10:55:01;;;;;;;1.80;1.00;;;19.60;60.10;;;;;;4992015;28;20185;-67
2023/01/10 10:57:30;;;;;;;1.30;1.20;;;19.70;60.20;;;;;;4975094;28;20212;-67
2023/01/10 10:59:57;;;;;;;1.85;1.52;;;19.70;60.20;;;;;;4981852;28;20196;-67
2023/01/10 11:02:30;;;;;;;2.08;1.27;;;19.70;60.00;;;;;;4990826;28;20234;-67
2023/01/10 11:05:05;;;;;;;2.17;1.75;;;19.70;60.00;;;;;;4975358;28;20220;-67
2023/01/10 11:07:35;;;;;;;3.03;1.73;;;19.70;60.10;;;;;;4991012;28;20210;-68
2023/01/10 11:10:56;;;;;;;2.28;1.50;;;19.70;60.10;;;;;;5012023;28;20212;-66
2023/01/10 11:13:24;;;;;;;3.00;1.55;;;19.70;60.00;;;;;;4992701;28;20219;-68
2023/01/10 11:15:50;;;;;;;1.50;1.30;;;19.70;60.10;;;;;;5009098;28;20203;-68
2023/01/10 11:18:24;;;;;;;3.78;1.88;;;19.70;60.10;;;;;;4983457;28;20189;-67
2023/01/10 11:21:10;;;;;;;2.13;1.58;;;19.70;60.00;;;;;;5007539;28;20215;-68
2023/01/10 11:23:39;;;;;;;1.83;1.38;;;19.70;60.00;;;;;;5003411;28;20216;-67
2023/01/10 11:26:28;;;;;;;1.95;1.25;;;19.70;60.00;;;;;;4998123;28;20273;-66
2023/01/10 11:29:20;;;;;;;2.20;1.50;;;19.70;60.00;;;;;;5012879;28;20196;-67
2023/01/10 11:31:48;;;;;;;2.22;1.60;;;19.70;60.00;;;;;;5009409;28;20646;-67
2023/01/10 11:34:23;;;;;;;1.80;1.20;;;19.70;59.90;;;;;;4997036;28;20200;-67
2023/01/10 11:37:20;;;;;;;1.92;1.40;;;19.70;59.90;;;;;;5000635;28;20204;-69
2023/01/10 11:39:46;;;;;;;2.53;1.40;;;19.70;60.00;;;;;;5012089;28;20335;-67
2023/01/10 11:42:38;;;;;;;1.48;1.30;;;19.70;60.00;;;;;;5009269;28;20699;-67
2023/01/10 11:45:16;;;;;;;2.33;1.70;;;19.70;59.90;;;;;;4997419;28;20211;-68
2023/01/10 11:48:21;;;;;;;1.80;1.40;;;19.70;59.90;;;;;;5009648;28;20195;-68
2023/01/10 11:50:52;;;;;;;1.77;1.10;;;19.70;59.90;;;;;;5008842;28;20213;-67
2023/01/10 11:53:38;;;;;;;2.90;1.40;;;19.70;59.90;;;;;;4995562;28;20197;-67
2023/01/10 11:56:08;;;;;;;1.90;1.38;;;19.70;59.90;;;;;;5013572;28;20196;-68
2023/01/10 11:58:37;;;;;;;1.95;1.60;;;19.70;59.90;;;;;;4988692;28;20193;-67
2023/01/10 12:01:03;;;;;;;1.73;1.33;;;19.70;59.90;;;;;;4978276;28;20181;-68
2023/01/10 12:03:35;;;;;;;1.60;1.50;;;19.70;60.10;;;;;;5002865;28;20227;-69
2023/01/10 12:06:16;;;;;;;3.10;1.70;;;19.80;60.00;;;;;;5002751;28;20483;-68
2023/01/10 12:08:43;;;;;;;1.98;1.50;;;19.70;60.00;;;;;;4996258;28;20283;-68
2023/01/10 12:11:12;;;;;;;1.70;1.60;;;19.80;60.00;;;;;;5014086;28;20223;-68
2023/01/10 12:13:58;;;;;;;2.72;1.75;;;19.70;59.90;;;;;;4997778;28;20188;-68
2023/01/10 12:16:33;;;;;;;2.38;1.90;;;19.70;59.90;;;;;;4994340;28;20262;-67
2023/01/10 12:19:06;;;;;;;2.97;1.73;;;19.70;59.90;;;;;;5002883;28;20200;-68
2023/01/10 12:21:43;;;;;;;2.10;1.38;;;19.70;60.00;;;;;;5004026;28;20196;-67
2023/01/10 12:24:22;;;;;;;1.92;1.60;;;19.70;59.90;;;;;;5014210;28;20184;-67
2023/01/10 12:26:52;;;;;;;1.55;1.45;;;19.70;59.90;;;;;;5013515;28;20216;-68
2023/01/10 12:29:30;;;;;;;1.90;1.70;;;19.80;59.90;;;;;;5011838;28;20246;-67
2023/01/10 12:31:59;;;;;;;2.95;1.80;;;19.80;60.00;;;;;;5002443;28;20197;-68
2023/01/10 12:34:59;;;;;;;2.55;1.83;;;19.70;59.90;;;;;;4993810;28;20185;-67
2023/01/10 12:37:41;;;;;;;3.15;1.55;;;19.70;59.80;;;;;;5002211;28;20211;-68
2023/01/10 12:40:52;;;;;;;2.47;1.70;;;19.70;59.90;;;;;;5013397;28;20704;-67
2023/01/10 12:46:44;;;;;;;2.50;1.58;;;19.80;59.90;;;;;;5005087;28;20210;-67
2023/01/10 12:49:33;;;;;;;3.15;1.80;;;19.80;60.00;;;;;;4999919;28;20268;-68
2023/01/10 12:52:09;;;;;;;1.67;1.50;;;19.70;59.90;;;;;;4993961;28;20611;-67
2023/01/10 12:54:35;;;;;;;2.63;1.60;;;19.80;59.90;;;;;;5010323;28;20334;-67
2023/01/10 12:57:18;;;;;;;3.70;1.60;;;19.70;59.80;;;;;;5001313;28;20288;-68
2023/01/10 12:59:45;;;;;;;1.80;1.60;;;19.80;59.90;;;;;;4987019;28;20272;-67
2023/01/10 13:02:24;;;;;;;1.95;1.50;;;19.70;59.80;;;;;;5013018;28;20215;-68
2023/01/10 13:04:59;;;;;;;2.22;1.60;;;19.80;59.90;;;;;;4994180;28;20192;-68
2023/01/10 13:07:32;;;;;;;2.30;1.80;;;19.80;59.90;;;;;;5008622;28;20230;-68
2023/01/10 13:10:02;;;;;;;1.92;1.70;;;19.70;59.80;;;;;;5009959;28;20181;-68
2023/01/10 13:12:44;;;;;;;1.67;1.50;;;19.70;59.80;;;;;;5008446;28;20188;-67
2023/01/10 13:16:03;;;;;;;1.92;1.65;;;19.80;59.90;;;;;;4990264;28;20194;-67
2023/01/10 13:18:31;;;;;;;3.13;1.70;;;19.70;59.80;;;;;;4899165;29;20224;-68
2023/01/10 13:21:14;;;;;;;3.42;1.70;;;19.70;59.80;;;;;;4915040;29;20204;-68
2023/01/10 13:24:21;;;;;;;1.55;1.10;;;19.80;59.90;;;;;;4967008;28;20610;-67
2023/01/10 13:26:56;;;;;;;2.55;1.50;;;19.70;59.80;;;;;;4973638;28;20635;-67
2023/01/10 13:29:45;;;;;;;3.05;1.60;;;19.80;59.90;;;;;;5001091;28;20718;-67